sensor_id;sensor_type;location;lat;lon;timestamp;P1;durP1;ratioP1;P2;durP2;ratioP2
62711;SDS011;48772;55.586;37.730;2023-09-18T00:00:58;13.13;;;8.35;;
62711;SDS011;48772;55.586;37.730;2023-09-18T00:03:24;11.95;;;9.02;;
62711;SDS011;48772;55.586;37.730;2023-09-18T00:05:51;12.25;;;8.38;;
62711;SDS011;48772;55.586;37.730;2023-09-18T00:08:18;15.80;;;8.57;;
62711;SDS011;48772;55.586;37.730;2023-09-18T00:10:49;17.13;;;8.35;;
62711;SDS011;48772;55.586;37.730;2023-09-18T00:13:17;13.18;;;9.18;;
62711;SDS011;48772;55.586;37.730;2023-09-18T00:15:43;13.30;;;8.68;;
62711;SDS011;48772;55.586;37.730;2023-09-18T00:18:15;12.90;;;8.68;;
62711;SDS011;48772;55.586;37.730;2023-09-18T00:20:43;16.13;;;9.32;;
62711;SDS011;48772;55.586;37.730;2023-09-18T00:23:11;13.43;;;8.75;;
62711;SDS011;48772;55.586;37.730;2023-09-18T00:25:36;16.00;;;9.63;;
62711;SDS011;48772;55.586;37.730;2023-09-18T00:28:03;13.75;;;8.65;;
62711;SDS011;48772;55.586;37.730;2023-09-18T00:30:30;12.52;;;8.15;;
62711;SDS011;48772;55.586;37.730;2023-09-18T00:32:58;12.30;;;7.65;;
62711;SDS011;48772;55.586;37.730;2023-09-18T00:35:24;12.23;;;9.10;;
62711;SDS011;48772;55.586;37.730;2023-09-18T00:37:50;15.48;;;9.20;;
62711;SDS011;48772;55.586;37.730;2023-09-18T00:40:16;14.35;;;9.30;;
62711;SDS011;48772;55.586;37.730;2023-09-18T00:42:44;12.73;;;8.40;;
62711;SDS011;48772;55.586;37.730;2023-09-18T00:45:11;12.85;;;8.65;;
62711;SDS011;48772;55.586;37.730;2023-09-18T00:47:38;11.75;;;8.45;;
62711;SDS011;48772;55.586;37.730;2023-09-18T00:50:04;16.85;;;9.77;;
62711;SDS011;48772;55.586;37.730;2023-09-18T00:52:35;12.75;;;8.95;;
62711;SDS011;48772;55.586;37.730;2023-09-18T00:55:01;14.43;;;8.75;;
62711;SDS011;48772;55.586;37.730;2023-09-18T00:57:31;14.10;;;9.25;;
62711;SDS011;48772;55.586;37.730;2023-09-18T00:59:57;13.77;;;8.57;;
62711;SDS011;48772;55.586;37.730;2023-09-18T01:02:24;12.43;;;8.18;;
62711;SDS011;48772;55.586;37.730;2023-09-18T01:04:50;12.15;;;8.18;;
62711;SDS011;48772;55.586;37.730;2023-09-18T01:07:16;12.52;;;7.75;;
62711;SDS011;48772;55.586;37.730;2023-09-18T01:09:45;12.98;;;8.35;;
62711;SDS011;48772;55.586;37.730;2023-09-18T01:12:17;14.77;;;8.70;;
62711;SDS011;48772;55.586;37.730;2023-09-18T01:14:55;11.43;;;8.68;;
62711;SDS011;48772;55.586;37.730;2023-09-18T01:17:34;14.85;;;8.85;;
62711;SDS011;48772;55.586;37.730;2023-09-18T01:20:04;11.70;;;8.38;;
62711;SDS011;48772;55.586;37.730;2023-09-18T01:22:31;13.40;;;8.10;;
62711;SDS011;48772;55.586;37.730;2023-09-18T01:24:57;14.82;;;8.68;;
62711;SDS011;48772;55.586;37.730;2023-09-18T01:27:24;13.30;;;8.85;;
62711;SDS011;48772;55.586;37.730;2023-09-18T01:29:50;15.07;;;9.02;;
62711;SDS011;48772;55.586;37.730;2023-09-18T01:32:18;11.90;;;7.85;;
62711;SDS011;48772;55.586;37.730;2023-09-18T01:34:54;11.82;;;7.15;;
62711;SDS011;48772;55.586;37.730;2023-09-18T01:37:23;18.25;;;8.68;;
62711;SDS011;48772;55.586;37.730;2023-09-18T01:39:52;15.65;;;7.75;;
62711;SDS011;48772;55.586;37.730;2023-09-18T01:42:20;13.02;;;8.50;;
62711;SDS011;48772;55.586;37.730;2023-09-18T01:44:47;11.23;;;8.25;;
62711;SDS011;48772;55.586;37.730;2023-09-18T01:47:15;11.75;;;8.02;;
62711;SDS011;48772;55.586;37.730;2023-09-18T01:49:43;11.30;;;7.07;;
62711;SDS011;48772;55.586;37.730;2023-09-18T01:52:12;13.68;;;8.32;;
62711;SDS011;48772;55.586;37.730;2023-09-18T01:54:38;10.65;;;7.03;;
62711;SDS011;48772;55.586;37.730;2023-09-18T01:57:05;12.52;;;6.60;;
62711;SDS011;48772;55.586;37.730;2023-09-18T01:59:34;12.27;;;8.18;;
62711;SDS011;48772;55.586;37.730;2023-09-18T02:02:02;15.70;;;8.30;;
62711;SDS011;48772;55.586;37.730;2023-09-18T02:04:29;11.13;;;8.38;;
62711;SDS011;48772;55.586;37.730;2023-09-18T02:06:55;12.10;;;7.53;;
62711;SDS011;48772;55.586;37.730;2023-09-18T02:09:22;16.40;;;9.07;;
62711;SDS011;48772;55.586;37.730;2023-09-18T02:11:48;9.27;;;6.78;;
62711;SDS011;48772;55.586;37.730;2023-09-18T02:14:16;11.55;;;7.43;;
62711;SDS011;48772;55.586;37.730;2023-09-18T02:16:43;13.60;;;7.78;;
62711;SDS011;48772;55.586;37.730;2023-09-18T02:19:12;11.50;;;7.88;;
62711;SDS011;48772;55.586;37.730;2023-09-18T02:24:12;9.77;;;7.07;;
62711;SDS011;48772;55.586;37.730;2023-09-18T02:26:37;10.82;;;7.28;;
62711;SDS011;48772;55.586;37.730;2023-09-18T02:29:06;10.02;;;7.20;;
62711;SDS011;48772;55.586;37.730;2023-09-18T02:31:35;13.35;;;8.55;;
62711;SDS011;48772;55.586;37.730;2023-09-18T02:34:01;10.13;;;7.38;;
62711;SDS011;48772;55.586;37.730;2023-09-18T02:36:27;13.25;;;7.45;;
62711;SDS011;48772;55.586;37.730;2023-09-18T02:38:53;13.40;;;7.85;;
62711;SDS011;48772;55.586;37.730;2023-09-18T02:41:19;13.68;;;7.20;;
62711;SDS011;48772;55.586;37.730;2023-09-18T02:43:46;13.65;;;8.65;;
62711;SDS011;48772;55.586;37.730;2023-09-18T02:46:13;9.88;;;6.38;;
62711;SDS011;48772;55.586;37.730;2023-09-18T02:48:39;13.00;;;8.07;;
62711;SDS011;48772;55.586;37.730;2023-09-18T02:51:05;12.35;;;7.78;;
62711;SDS011;48772;55.586;37.730;2023-09-18T02:53:31;15.07;;;8.27;;
62711;SDS011;48772;55.586;37.730;2023-09-18T02:55:59;12.07;;;7.72;;
62711;SDS011;48772;55.586;37.730;2023-09-18T02:58:27;14.15;;;6.95;;
62711;SDS011;48772;55.586;37.730;2023-09-18T03:00:56;13.70;;;7.90;;
62711;SDS011;48772;55.586;37.730;2023-09-18T03:03:29;13.60;;;8.00;;
62711;SDS011;48772;55.586;37.730;2023-09-18T03:06:00;10.13;;;6.80;;
62711;SDS011;48772;55.586;37.730;2023-09-18T03:08:28;10.90;;;7.07;;
62711;SDS011;48772;55.586;37.730;2023-09-18T03:10:55;11.02;;;7.40;;
62711;SDS011;48772;55.586;37.730;2023-09-18T03:13:22;9.10;;;6.78;;
62711;SDS011;48772;55.586;37.730;2023-09-18T03:15:48;11.60;;;8.00;;
62711;SDS011;48772;55.586;37.730;2023-09-18T03:18:14;12.55;;;6.40;;
62711;SDS011;48772;55.586;37.730;2023-09-18T03:20:42;12.13;;;7.43;;
62711;SDS011;48772;55.586;37.730;2023-09-18T03:23:08;9.90;;;6.70;;
62711;SDS011;48772;55.586;37.730;2023-09-18T03:25:35;11.73;;;7.75;;
62711;SDS011;48772;55.586;37.730;2023-09-18T03:28:03;16.08;;;8.55;;
62711;SDS011;48772;55.586;37.730;2023-09-18T03:30:32;10.05;;;7.70;;
62711;SDS011;48772;55.586;37.730;2023-09-18T03:32:58;14.75;;;8.07;;
62711;SDS011;48772;55.586;37.730;2023-09-18T03:35:24;12.57;;;7.80;;
62711;SDS011;48772;55.586;37.730;2023-09-18T03:37:51;12.88;;;7.80;;
62711;SDS011;48772;55.586;37.730;2023-09-18T03:40:20;13.60;;;7.45;;
62711;SDS011;48772;55.586;37.730;2023-09-18T03:42:46;11.18;;;7.75;;
62711;SDS011;48772;55.586;37.730;2023-09-18T03:45:13;13.52;;;7.68;;
62711;SDS011;48772;55.586;37.730;2023-09-18T03:47:40;15.18;;;8.23;;
62711;SDS011;48772;55.586;37.730;2023-09-18T03:50:11;15.45;;;8.45;;
62711;SDS011;48772;55.586;37.730;2023-09-18T03:52:38;10.82;;;7.60;;
62711;SDS011;48772;55.586;37.730;2023-09-18T03:55:06;16.00;;;7.97;;
62711;SDS011;48772;55.586;37.730;2023-09-18T03:57:32;14.68;;;8.38;;
62711;SDS011;48772;55.586;37.730;2023-09-18T03:59:58;16.90;;;7.80;;
62711;SDS011;48772;55.586;37.730;2023-09-18T04:02:25;13.90;;;8.13;;
62711;SDS011;48772;55.586;37.730;2023-09-18T04:04:55;11.65;;;7.93;;
62711;SDS011;48772;55.586;37.730;2023-09-18T04:07:21;12.77;;;7.35;;
62711;SDS011;48772;55.586;37.730;2023-09-18T04:09:48;16.38;;;7.57;;
62711;SDS011;48772;55.586;37.730;2023-09-18T04:12:14;12.55;;;8.27;;
62711;SDS011;48772;55.586;37.730;2023-09-18T04:14:41;11.77;;;7.03;;
62711;SDS011;48772;55.586;37.730;2023-09-18T04:17:07;18.73;;;8.60;;
62711;SDS011;48772;55.586;37.730;2023-09-18T04:19:34;14.63;;;8.07;;
62711;SDS011;48772;55.586;37.730;2023-09-18T04:22:00;15.60;;;8.38;;
62711;SDS011;48772;55.586;37.730;2023-09-18T04:24:26;12.18;;;8.35;;
62711;SDS011;48772;55.586;37.730;2023-09-18T04:26:52;11.80;;;7.80;;
62711;SDS011;48772;55.586;37.730;2023-09-18T04:29:19;14.65;;;7.78;;
62711;SDS011;48772;55.586;37.730;2023-09-18T04:31:47;14.77;;;8.20;;
62711;SDS011;48772;55.586;37.730;2023-09-18T04:34:14;12.20;;;7.32;;
62711;SDS011;48772;55.586;37.730;2023-09-18T04:36:40;12.27;;;7.45;;
62711;SDS011;48772;55.586;37.730;2023-09-18T04:39:07;13.85;;;8.02;;
62711;SDS011;48772;55.586;37.730;2023-09-18T04:41:35;12.32;;;7.30;;
62711;SDS011;48772;55.586;37.730;2023-09-18T04:44:04;9.95;;;6.78;;
62711;SDS011;48772;55.586;37.730;2023-09-18T04:46:32;11.10;;;7.18;;
62711;SDS011;48772;55.586;37.730;2023-09-18T04:48:59;11.52;;;7.68;;
62711;SDS011;48772;55.586;37.730;2023-09-18T04:51:25;13.40;;;7.50;;
62711;SDS011;48772;55.586;37.730;2023-09-18T04:53:51;10.88;;;6.32;;
62711;SDS011;48772;55.586;37.730;2023-09-18T04:56:17;11.63;;;7.13;;
62711;SDS011;48772;55.586;37.730;2023-09-18T04:58:44;10.48;;;6.57;;
62711;SDS011;48772;55.586;37.730;2023-09-18T05:01:10;12.18;;;7.07;;
62711;SDS011;48772;55.586;37.730;2023-09-18T05:03:39;10.65;;;6.65;;
62711;SDS011;48772;55.586;37.730;2023-09-18T05:06:05;13.10;;;6.25;;
62711;SDS011;48772;55.586;37.730;2023-09-18T05:08:31;9.73;;;7.40;;
62711;SDS011;48772;55.586;37.730;2023-09-18T05:10:57;19.73;;;7.32;;
62711;SDS011;48772;55.586;37.730;2023-09-18T05:13:24;14.05;;;6.65;;
62711;SDS011;48772;55.586;37.730;2023-09-18T05:15:50;10.65;;;7.20;;
62711;SDS011;48772;55.586;37.730;2023-09-18T05:18:16;10.52;;;6.90;;
62711;SDS011;48772;55.586;37.730;2023-09-18T05:20:43;12.25;;;6.95;;
62711;SDS011;48772;55.586;37.730;2023-09-18T05:23:09;14.35;;;6.57;;
62711;SDS011;48772;55.586;37.730;2023-09-18T05:25:35;9.00;;;6.25;;
62711;SDS011;48772;55.586;37.730;2023-09-18T05:28:04;8.82;;;6.50;;
62711;SDS011;48772;55.586;37.730;2023-09-18T05:30:32;12.35;;;7.15;;
62711;SDS011;48772;55.586;37.730;2023-09-18T05:33:01;9.07;;;6.35;;
62711;SDS011;48772;55.586;37.730;2023-09-18T05:35:39;16.40;;;7.18;;
62711;SDS011;48772;55.586;37.730;2023-09-18T05:38:07;8.65;;;6.22;;
62711;SDS011;48772;55.586;37.730;2023-09-18T05:40:35;12.38;;;5.93;;
62711;SDS011;48772;55.586;37.730;2023-09-18T05:43:01;13.32;;;7.40;;
62711;SDS011;48772;55.586;37.730;2023-09-18T05:45:27;8.27;;;6.80;;
62711;SDS011;48772;55.586;37.730;2023-09-18T05:47:53;9.80;;;6.82;;
62711;SDS011;48772;55.586;37.730;2023-09-18T05:50:19;11.70;;;6.15;;
62711;SDS011;48772;55.586;37.730;2023-09-18T05:52:47;9.90;;;5.50;;
62711;SDS011;48772;55.586;37.730;2023-09-18T05:55:17;8.65;;;4.63;;
62711;SDS011;48772;55.586;37.730;2023-09-18T05:57:43;7.80;;;5.95;;
62711;SDS011;48772;55.586;37.730;2023-09-18T06:00:09;7.60;;;5.13;;
62711;SDS011;48772;55.586;37.730;2023-09-18T06:02:40;13.30;;;5.07;;
62711;SDS011;48772;55.586;37.730;2023-09-18T06:05:07;7.40;;;4.68;;
62711;SDS011;48772;55.586;37.730;2023-09-18T06:07:37;9.40;;;5.13;;
62711;SDS011;48772;55.586;37.730;2023-09-18T06:10:04;8.63;;;5.43;;
62711;SDS011;48772;55.586;37.730;2023-09-18T06:12:30;13.20;;;5.65;;
62711;SDS011;48772;55.586;37.730;2023-09-18T06:14:56;7.57;;;4.78;;
62711;SDS011;48772;55.586;37.730;2023-09-18T06:17:22;8.52;;;6.18;;
62711;SDS011;48772;55.586;37.730;2023-09-18T06:19:49;10.00;;;6.05;;
62711;SDS011;48772;55.586;37.730;2023-09-18T06:22:15;11.63;;;5.82;;
62711;SDS011;48772;55.586;37.730;2023-09-18T06:24:42;8.05;;;5.57;;
62711;SDS011;48772;55.586;37.730;2023-09-18T06:27:08;8.60;;;5.40;;
62711;SDS011;48772;55.586;37.730;2023-09-18T06:29:34;7.00;;;6.00;;
62711;SDS011;48772;55.586;37.730;2023-09-18T06:32:01;11.13;;;5.70;;
62711;SDS011;48772;55.586;37.730;2023-09-18T06:34:27;8.65;;;6.15;;
62711;SDS011;48772;55.586;37.730;2023-09-18T06:36:55;9.50;;;5.15;;
62711;SDS011;48772;55.586;37.730;2023-09-18T06:39:21;8.15;;;5.68;;
62711;SDS011;48772;55.586;37.730;2023-09-18T06:41:49;10.57;;;6.05;;
62711;SDS011;48772;55.586;37.730;2023-09-18T06:44:18;9.85;;;5.90;;
62711;SDS011;48772;55.586;37.730;2023-09-18T06:46:44;8.85;;;5.90;;
62711;SDS011;48772;55.586;37.730;2023-09-18T06:49:10;13.65;;;5.78;;
62711;SDS011;48772;55.586;37.730;2023-09-18T06:51:36;13.65;;;6.43;;
62711;SDS011;48772;55.586;37.730;2023-09-18T06:54:02;15.98;;;6.38;;
62711;SDS011;48772;55.586;37.730;2023-09-18T06:56:28;10.77;;;6.13;;
62711;SDS011;48772;55.586;37.730;2023-09-18T06:58:55;13.90;;;6.32;;
62711;SDS011;48772;55.586;37.730;2023-09-18T07:01:22;8.45;;;5.80;;
62711;SDS011;48772;55.586;37.730;2023-09-18T07:03:50;10.10;;;6.75;;
62711;SDS011;48772;55.586;37.730;2023-09-18T07:06:17;18.90;;;6.30;;
62711;SDS011;48772;55.586;37.730;2023-09-18T07:08:47;13.52;;;5.68;;
62711;SDS011;48772;55.586;37.730;2023-09-18T07:11:17;7.93;;;6.35;;
62711;SDS011;48772;55.586;37.730;2023-09-18T07:13:47;11.43;;;6.05;;
62711;SDS011;48772;55.586;37.730;2023-09-18T07:16:13;9.73;;;5.88;;
62711;SDS011;48772;55.586;37.730;2023-09-18T07:18:39;13.13;;;5.82;;
62711;SDS011;48772;55.586;37.730;2023-09-18T07:21:05;14.00;;;6.13;;
62711;SDS011;48772;55.586;37.730;2023-09-18T07:23:31;8.60;;;6.40;;
62711;SDS011;48772;55.586;37.730;2023-09-18T07:25:57;8.48;;;6.13;;
62711;SDS011;48772;55.586;37.730;2023-09-18T07:28:26;11.30;;;5.97;;
62711;SDS011;48772;55.586;37.730;2023-09-18T07:30:52;12.40;;;6.07;;
62711;SDS011;48772;55.586;37.730;2023-09-18T07:33:18;8.50;;;5.93;;
62711;SDS011;48772;55.586;37.730;2023-09-18T07:35:46;12.15;;;6.68;;
62711;SDS011;48772;55.586;37.730;2023-09-18T07:38:23;12.15;;;5.88;;
62711;SDS011;48772;55.586;37.730;2023-09-18T07:40:50;10.02;;;6.55;;
62711;SDS011;48772;55.586;37.730;2023-09-18T07:43:16;13.00;;;6.38;;
62711;SDS011;48772;55.586;37.730;2023-09-18T07:45:42;14.95;;;6.22;;
62711;SDS011;48772;55.586;37.730;2023-09-18T07:48:08;9.05;;;5.68;;
62711;SDS011;48772;55.586;37.730;2023-09-18T07:50:34;8.43;;;5.68;;
62711;SDS011;48772;55.586;37.730;2023-09-18T07:53:04;13.88;;;6.05;;
62711;SDS011;48772;55.586;37.730;2023-09-18T07:55:30;10.15;;;5.50;;
62711;SDS011;48772;55.586;37.730;2023-09-18T07:57:56;8.60;;;5.50;;
62711;SDS011;48772;55.586;37.730;2023-09-18T08:00:24;10.73;;;5.53;;
62711;SDS011;48772;55.586;37.730;2023-09-18T08:02:50;10.88;;;5.85;;
62711;SDS011;48772;55.586;37.730;2023-09-18T08:05:20;7.95;;;5.80;;
62711;SDS011;48772;55.586;37.730;2023-09-18T08:07:47;11.18;;;5.22;;
62711;SDS011;48772;55.586;37.730;2023-09-18T08:10:13;8.65;;;6.20;;
62711;SDS011;48772;55.586;37.730;2023-09-18T08:12:39;7.90;;;5.50;;
62711;SDS011;48772;55.586;37.730;2023-09-18T08:15:05;11.63;;;5.57;;
62711;SDS011;48772;55.586;37.730;2023-09-18T08:17:32;9.65;;;6.00;;
62711;SDS011;48772;55.586;37.730;2023-09-18T08:19:59;7.22;;;5.50;;
62711;SDS011;48772;55.586;37.730;2023-09-18T08:22:25;8.48;;;5.75;;
62711;SDS011;48772;55.586;37.730;2023-09-18T08:24:51;10.00;;;5.70;;
62711;SDS011;48772;55.586;37.730;2023-09-18T08:27:19;7.72;;;5.60;;
62711;SDS011;48772;55.586;37.730;2023-09-18T08:29:46;15.00;;;6.28;;
62711;SDS011;48772;55.586;37.730;2023-09-18T08:32:13;12.75;;;6.10;;
62711;SDS011;48772;55.586;37.730;2023-09-18T08:34:39;10.27;;;5.95;;
62711;SDS011;48772;55.586;37.730;2023-09-18T08:37:06;10.57;;;6.07;;
62711;SDS011;48772;55.586;37.730;2023-09-18T08:39:32;10.57;;;5.82;;
62711;SDS011;48772;55.586;37.730;2023-09-18T08:42:02;9.60;;;6.22;;
62711;SDS011;48772;55.586;37.730;2023-09-18T08:44:30;17.02;;;5.97;;
62711;SDS011;48772;55.586;37.730;2023-09-18T08:46:57;15.88;;;6.30;;
62711;SDS011;48772;55.586;37.730;2023-09-18T08:49:23;14.70;;;6.55;;
62711;SDS011;48772;55.586;37.730;2023-09-18T08:51:50;20.05;;;6.72;;
62711;SDS011;48772;55.586;37.730;2023-09-18T08:54:19;16.65;;;6.22;;
62711;SDS011;48772;55.586;37.730;2023-09-18T08:56:46;11.50;;;6.85;;
62711;SDS011;48772;55.586;37.730;2023-09-18T08:59:12;9.88;;;6.60;;
62711;SDS011;48772;55.586;37.730;2023-09-18T09:01:39;12.00;;;6.55;;
62711;SDS011;48772;55.586;37.730;2023-09-18T09:04:05;12.20;;;5.90;;
62711;SDS011;48772;55.586;37.730;2023-09-18T09:06:31;11.73;;;6.43;;
62711;SDS011;48772;55.586;37.730;2023-09-18T09:08:57;9.45;;;6.35;;
62711;SDS011;48772;55.586;37.730;2023-09-18T09:11:24;11.50;;;6.80;;
62711;SDS011;48772;55.586;37.730;2023-09-18T09:29:21;14.98;;;6.68;;
62711;SDS011;48772;55.586;37.730;2023-09-18T09:31:48;13.98;;;5.97;;
62711;SDS011;48772;55.586;37.730;2023-09-18T09:34:26;10.25;;;5.97;;
62711;SDS011;48772;55.586;37.730;2023-09-18T09:36:55;12.13;;;5.65;;
62711;SDS011;48772;55.586;37.730;2023-09-18T09:39:22;9.27;;;6.10;;
62711;SDS011;48772;55.586;37.730;2023-09-18T09:41:52;14.70;;;6.03;;
62711;SDS011;48772;55.586;37.730;2023-09-18T09:44:18;11.77;;;5.10;;
62711;SDS011;48772;55.586;37.730;2023-09-18T09:46:47;8.30;;;5.43;;
62711;SDS011;48772;55.586;37.730;2023-09-18T09:49:14;9.55;;;5.25;;
62711;SDS011;48772;55.586;37.730;2023-09-18T09:51:42;9.32;;;5.82;;
62711;SDS011;48772;55.586;37.730;2023-09-18T09:54:08;7.53;;;5.22;;
62711;SDS011;48772;55.586;37.730;2023-09-18T09:56:42;7.47;;;5.00;;
62711;SDS011;48772;55.586;37.730;2023-09-18T09:59:27;12.82;;;6.65;;
62711;SDS011;48772;55.586;37.730;2023-09-18T10:01:55;8.57;;;6.05;;
62711;SDS011;48772;55.586;37.730;2023-09-18T10:04:27;8.50;;;5.70;;
62711;SDS011;48772;55.586;37.730;2023-09-18T10:10:51;10.93;;;4.93;;
62711;SDS011;48772;55.586;37.730;2023-09-18T10:16:17;7.15;;;5.65;;
62711;SDS011;48772;55.586;37.730;2023-09-18T10:24:17;8.95;;;5.22;;
62711;SDS011;48772;55.586;37.730;2023-09-18T10:27:04;9.20;;;5.47;;
62711;SDS011;48772;55.586;37.730;2023-09-18T10:29:36;7.60;;;5.30;;
62711;SDS011;48772;55.586;37.730;2023-09-18T10:32:03;9.75;;;5.88;;
62711;SDS011;48772;55.586;37.730;2023-09-18T10:34:30;11.95;;;5.30;;
62711;SDS011;48772;55.586;37.730;2023-09-18T10:36:59;7.80;;;5.28;;
62711;SDS011;48772;55.586;37.730;2023-09-18T10:39:26;8.70;;;5.45;;
62711;SDS011;48772;55.586;37.730;2023-09-18T10:41:55;11.27;;;5.38;;
62711;SDS011;48772;55.586;37.730;2023-09-18T10:44:27;9.50;;;4.93;;
62711;SDS011;48772;55.586;37.730;2023-09-18T10:46:54;9.77;;;5.38;;
62711;SDS011;48772;55.586;37.730;2023-09-18T10:49:23;8.45;;;5.57;;
62711;SDS011;48772;55.586;37.730;2023-09-18T10:51:53;7.65;;;5.40;;
62711;SDS011;48772;55.586;37.730;2023-09-18T10:54:21;9.07;;;5.30;;
62711;SDS011;48772;55.586;37.730;2023-09-18T10:56:48;7.47;;;4.95;;
62711;SDS011;48772;55.586;37.730;2023-09-18T10:59:15;12.88;;;5.30;;
62711;SDS011;48772;55.586;37.730;2023-09-18T11:01:42;9.02;;;4.93;;
62711;SDS011;48772;55.586;37.730;2023-09-18T11:04:10;13.52;;;5.38;;
62711;SDS011;48772;55.586;37.730;2023-09-18T11:17:28;10.00;;;4.75;;
62711;SDS011;48772;55.586;37.730;2023-09-18T11:20:16;24.30;;;16.02;;
62711;SDS011;48772;55.586;37.730;2023-09-18T11:22:47;8.68;;;6.25;;
62711;SDS011;48772;55.586;37.730;2023-09-18T11:28:07;7.63;;;4.95;;
62711;SDS011;48772;55.586;37.730;2023-09-18T11:45:55;9.23;;;4.85;;
62711;SDS011;48772;55.586;37.730;2023-09-18T11:48:26;11.02;;;4.53;;
62711;SDS011;48772;55.586;37.730;2023-09-18T11:50:58;13.83;;;5.00;;
62711;SDS011;48772;55.586;37.730;2023-09-18T11:53:26;7.43;;;4.57;;
62711;SDS011;48772;55.586;37.730;2023-09-18T11:55:53;7.18;;;4.50;;
62711;SDS011;48772;55.586;37.730;2023-09-18T11:58:20;7.20;;;4.45;;
62711;SDS011;48772;55.586;37.730;2023-09-18T12:00:55;6.82;;;4.28;;
62711;SDS011;48772;55.586;37.730;2023-09-18T12:03:22;11.60;;;4.88;;
62711;SDS011;48772;55.586;37.730;2023-09-18T12:08:26;7.68;;;5.00;;
62711;SDS011;48772;55.586;37.730;2023-09-18T12:10:55;10.20;;;5.03;;
62711;SDS011;48772;55.586;37.730;2023-09-18T12:13:21;12.45;;;5.40;;
62711;SDS011;48772;55.586;37.730;2023-09-18T12:15:49;10.35;;;5.60;;
62711;SDS011;48772;55.586;37.730;2023-09-18T12:18:22;9.23;;;5.50;;
62711;SDS011;48772;55.586;37.730;2023-09-18T12:20:50;10.65;;;5.95;;
62711;SDS011;48772;55.586;37.730;2023-09-18T12:23:17;15.20;;;6.30;;
62711;SDS011;48772;55.586;37.730;2023-09-18T12:25:45;12.43;;;6.53;;
62711;SDS011;48772;55.586;37.730;2023-09-18T12:28:15;13.30;;;6.45;;
62711;SDS011;48772;55.586;37.730;2023-09-18T12:30:42;10.32;;;5.38;;
62711;SDS011;48772;55.586;37.730;2023-09-18T12:33:09;12.40;;;5.50;;
62711;SDS011;48772;55.586;37.730;2023-09-18T12:35:36;14.90;;;6.35;;
62711;SDS011;48772;55.586;37.730;2023-09-18T12:38:13;10.98;;;5.60;;
62711;SDS011;48772;55.586;37.730;2023-09-18T12:40:39;8.77;;;6.30;;
62711;SDS011;48772;55.586;37.730;2023-09-18T12:43:05;14.32;;;7.00;;
62711;SDS011;48772;55.586;37.730;2023-09-18T12:45:31;9.00;;;5.85;;
62711;SDS011;48772;55.586;37.730;2023-09-18T12:47:57;12.55;;;5.95;;
62711;SDS011;48772;55.586;37.730;2023-09-18T12:50:24;13.27;;;6.45;;
62711;SDS011;48772;55.586;37.730;2023-09-18T12:52:51;10.38;;;6.20;;
62711;SDS011;48772;55.586;37.730;2023-09-18T12:55:20;12.82;;;5.95;;
62711;SDS011;48772;55.586;37.730;2023-09-18T12:57:49;9.15;;;7.07;;
62711;SDS011;48772;55.586;37.730;2023-09-18T13:00:17;11.02;;;5.90;;
62711;SDS011;48772;55.586;37.730;2023-09-18T13:02:49;11.77;;;5.78;;
62711;SDS011;48772;55.586;37.730;2023-09-18T13:05:23;19.48;;;6.30;;
62711;SDS011;48772;55.586;37.730;2023-09-18T13:07:54;8.60;;;5.97;;
62711;SDS011;48772;55.586;37.730;2023-09-18T13:10:21;7.85;;;5.45;;
62711;SDS011;48772;55.586;37.730;2023-09-18T13:12:53;13.32;;;5.65;;
62711;SDS011;48772;55.586;37.730;2023-09-18T13:15:28;8.43;;;5.35;;
62711;SDS011;48772;55.586;37.730;2023-09-18T13:20:23;10.00;;;4.75;;
62711;SDS011;48772;55.586;37.730;2023-09-18T13:22:52;8.90;;;5.00;;
62711;SDS011;48772;55.586;37.730;2023-09-18T13:25:24;8.32;;;5.18;;
62711;SDS011;48772;55.586;37.730;2023-09-18T13:27:51;8.30;;;4.50;;
62711;SDS011;48772;55.586;37.730;2023-09-18T13:30:18;12.68;;;5.47;;
62711;SDS011;48772;55.586;37.730;2023-09-18T13:32:48;9.43;;;5.03;;
62711;SDS011;48772;55.586;37.730;2023-09-18T13:35:16;6.32;;;4.85;;
62711;SDS011;48772;55.586;37.730;2023-09-18T13:37:43;7.45;;;4.97;;
62711;SDS011;48772;55.586;37.730;2023-09-18T13:40:10;6.00;;;4.70;;
62711;SDS011;48772;55.586;37.730;2023-09-18T13:42:37;15.55;;;5.30;;
62711;SDS011;48772;55.586;37.730;2023-09-18T14:02:28;12.70;;;4.65;;
62711;SDS011;48772;55.586;37.730;2023-09-18T14:05:05;10.60;;;4.60;;
62711;SDS011;48772;55.586;37.730;2023-09-18T14:07:32;10.20;;;4.70;;
62711;SDS011;48772;55.586;37.730;2023-09-18T14:10:02;11.93;;;4.82;;
62711;SDS011;48772;55.586;37.730;2023-09-18T14:12:31;11.95;;;5.53;;
62711;SDS011;48772;55.586;37.730;2023-09-18T14:14:58;8.50;;;4.80;;
62711;SDS011;48772;55.586;37.730;2023-09-18T14:17:26;10.68;;;5.20;;
62711;SDS011;48772;55.586;37.730;2023-09-18T14:19:53;10.05;;;5.00;;
62711;SDS011;48772;55.586;37.730;2023-09-18T14:22:19;14.48;;;4.75;;
62711;SDS011;48772;55.586;37.730;2023-09-18T14:24:45;8.15;;;5.05;;
62711;SDS011;48772;55.586;37.730;2023-09-18T14:27:11;8.45;;;5.25;;
62711;SDS011;48772;55.586;37.730;2023-09-18T14:29:38;8.75;;;5.40;;
62711;SDS011;48772;55.586;37.730;2023-09-18T14:32:04;8.45;;;4.93;;
62711;SDS011;48772;55.586;37.730;2023-09-18T14:34:32;6.78;;;5.00;;
62711;SDS011;48772;55.586;37.730;2023-09-18T14:37:03;7.68;;;4.88;;
62711;SDS011;48772;55.586;37.730;2023-09-18T14:39:30;9.77;;;4.68;;
62711;SDS011;48772;55.586;37.730;2023-09-18T14:41:58;8.95;;;4.68;;
62711;SDS011;48772;55.586;37.730;2023-09-18T14:44:25;17.38;;;5.03;;
62711;SDS011;48772;55.586;37.730;2023-09-18T14:46:53;15.23;;;5.03;;
62711;SDS011;48772;55.586;37.730;2023-09-18T14:49:19;8.98;;;4.55;;
62711;SDS011;48772;55.586;37.730;2023-09-18T14:51:45;6.85;;;4.40;;
62711;SDS011;48772;55.586;37.730;2023-09-18T14:54:12;9.80;;;5.32;;
62711;SDS011;48772;55.586;37.730;2023-09-18T14:56:39;11.93;;;5.13;;
62711;SDS011;48772;55.586;37.730;2023-09-18T14:59:06;10.65;;;4.68;;
62711;SDS011;48772;55.586;37.730;2023-09-18T15:01:33;8.98;;;5.05;;
62711;SDS011;48772;55.586;37.730;2023-09-18T15:03:59;10.02;;;4.80;;
62711;SDS011;48772;55.586;37.730;2023-09-18T15:06:25;12.25;;;5.32;;
62711;SDS011;48772;55.586;37.730;2023-09-18T15:08:54;9.38;;;5.18;;
62711;SDS011;48772;55.586;37.730;2023-09-18T15:11:20;10.48;;;5.60;;
62711;SDS011;48772;55.586;37.730;2023-09-18T15:13:46;8.35;;;5.20;;
62711;SDS011;48772;55.586;37.730;2023-09-18T15:16:12;7.50;;;5.00;;
62711;SDS011;48772;55.586;37.730;2023-09-18T15:18:38;9.50;;;5.20;;
62711;SDS011;48772;55.586;37.730;2023-09-18T15:21:09;8.52;;;5.25;;
62711;SDS011;48772;55.586;37.730;2023-09-18T15:23:36;11.88;;;6.05;;
62711;SDS011;48772;55.586;37.730;2023-09-18T15:26:02;11.63;;;5.90;;
62711;SDS011;48772;55.586;37.730;2023-09-18T15:28:28;7.43;;;5.68;;
62711;SDS011;48772;55.586;37.730;2023-09-18T15:30:55;14.25;;;6.45;;
62711;SDS011;48772;55.586;37.730;2023-09-18T15:33:22;12.95;;;5.60;;
62711;SDS011;48772;55.586;37.730;2023-09-18T15:35:48;6.40;;;5.30;;
62711;SDS011;48772;55.586;37.730;2023-09-18T15:38:14;9.93;;;5.85;;
62711;SDS011;48772;55.586;37.730;2023-09-18T15:40:41;13.43;;;6.03;;
62711;SDS011;48772;55.586;37.730;2023-09-18T15:43:07;8.52;;;5.40;;
62711;SDS011;48772;55.586;37.730;2023-09-18T15:45:33;12.50;;;6.15;;
62711;SDS011;48772;55.586;37.730;2023-09-18T15:48:03;12.52;;;6.10;;
62711;SDS011;48772;55.586;37.730;2023-09-18T15:50:30;21.67;;;16.63;;